sensor_id;sensor_type;location;lat;lon;timestamp;pressure;altitude;pressure_sealevel;temperature;humidity
7614;BME280;3848;42.016;23.098;2023-02-01T00:00:11;97285.81;;;3.27;100.00
7614;BME280;3848;42.016;23.098;2023-02-01T00:02:38;97304.50;;;3.38;100.00
7614;BME280;3848;42.016;23.098;2023-02-01T00:05:07;97306.28;;;3.42;100.00
7614;BME280;3848;42.016;23.098;2023-02-01T00:07:34;97296.16;;;3.39;100.00
7614;BME280;3848;42.016;23.098;2023-02-01T00:10:02;97317.28;;;3.49;100.00
7614;BME280;3848;42.016;23.098;2023-02-01T00:12:29;97307.34;;;3.53;100.00
7614;BME280;3848;42.016;23.098;2023-02-01T00:14:58;97308.16;;;3.52;100.00
7614;BME280;3848;42.016;23.098;2023-02-01T00:17:24;97296.44;;;3.53;100.00
7614;BME280;3848;42.016;23.098;2023-02-01T00:19:51;97302.25;;;3.50;100.00
7614;BME280;3848;42.016;23.098;2023-02-01T00:22:18;97316.69;;;3.59;100.00
7614;BME280;3848;42.016;23.098;2023-02-01T00:24:45;97309.94;;;3.56;100.00
7614;BME280;3848;42.016;23.098;2023-02-01T00:27:11;97307.50;;;3.59;100.00
7614;BME280;3848;42.016;23.098;2023-02-01T00:29:43;97305.06;;;3.62;100.00
7614;BME280;3848;42.016;23.098;2023-02-01T00:32:12;97306.81;;;3.66;100.00
7614;BME280;3848;42.016;23.098;2023-02-01T00:34:39;97290.91;;;3.67;100.00
7614;BME280;3848;42.016;23.098;2023-02-01T00:37:06;97294.50;;;3.79;100.00
7614;BME280;3848;42.016;23.098;2023-02-01T00:39:32;97279.22;;;3.70;100.00
7614;BME280;3848;42.016;23.098;2023-02-01T00:41:59;97285.94;;;3.71;100.00
7614;BME280;3848;42.016;23.098;2023-02-01T00:44:26;97302.06;;;3.79;100.00
7614;BME280;3848;42.016;23.098;2023-02-01T00:46:53;97300.22;;;3.72;100.00
7614;BME280;3848;42.016;23.098;2023-02-01T00:49:21;97297.59;;;3.67;100.00
7614;BME280;3848;42.016;23.098;2023-02-01T00:51:48;97294.28;;;3.68;100.00
7614;BME280;3848;42.016;23.098;2023-02-01T00:54:15;97294.34;;;3.71;100.00
7614;BME280;3848;42.016;23.098;2023-02-01T00:56:42;97288.53;;;3.74;100.00
7614;BME280;3848;42.016;23.098;2023-02-01T00:59:10;97291.09;;;3.75;100.00
7614;BME280;3848;42.016;23.098;2023-02-01T01:01:38;97290.91;;;3.67;100.00
7614;BME280;3848;42.016;23.098;2023-02-01T01:04:05;97282.44;;;3.62;100.00
7614;BME280;3848;42.016;23.098;2023-02-01T01:06:34;97286.78;;;3.70;100.00
7614;BME280;3848;42.016;23.098;2023-02-01T01:09:04;97295.91;;;3.66;100.00
7614;BME280;3848;42.016;23.098;2023-02-01T01:11:34;97296.72;;;3.65;100.00
7614;BME280;3848;42.016;23.098;2023-02-01T01:14:01;97273.09;;;3.55;100.00
7614;BME280;3848;42.016;23.098;2023-02-01T01:16:29;97285.81;;;3.63;100.00
7614;BME280;3848;42.016;23.098;2023-02-01T01:18:57;97262.81;;;3.46;100.00
7614;BME280;3848;42.016;23.098;2023-02-01T01:21:24;97289.84;;;3.56;100.00
7614;BME280;3848;42.016;23.098;2023-02-01T01:23:53;97276.41;;;3.54;100.00
7614;BME280;3848;42.016;23.098;2023-02-01T01:26:22;97274.56;;;3.47;100.00
7614;BME280;3848;42.016;23.098;2023-02-01T01:28:50;97267.66;;;3.37;100.00
7614;BME280;3848;42.016;23.098;2023-02-01T01:31:17;97292.91;;;3.43;100.00
7614;BME280;3848;42.016;23.098;2023-02-01T01:33:47;97255.56;;;3.21;100.00
7614;BME280;3848;42.016;23.098;2023-02-01T01:36:15;97286.84;;;3.33;100.00
7614;BME280;3848;42.016;23.098;2023-02-01T01:38:42;97301.03;;;3.33;100.00
7614;BME280;3848;42.016;23.098;2023-02-01T01:41:14;97279.88;;;3.22;100.00
7614;BME280;3848;42.016;23.098;2023-02-01T01:43:59;97292.56;;;3.29;100.00
7614;BME280;3848;42.016;23.098;2023-02-01T01:46:28;97284.00;;;3.20;100.00
7614;BME280;3848;42.016;23.098;2023-02-01T01:49:01;97294.09;;;3.23;100.00
7614;BME280;3848;42.016;23.098;2023-02-01T01:51:31;97287.41;;;3.22;100.00
7614;BME280;3848;42.016;23.098;2023-02-01T01:54:02;97290.59;;;3.15;100.00
7614;BME280;3848;42.016;23.098;2023-02-01T01:56:32;97271.81;;;2.99;100.00
7614;BME280;3848;42.016;23.098;2023-02-01T01:59:00;97270.69;;;2.88;100.00
7614;BME280;3848;42.016;23.098;2023-02-01T02:01:27;97291.66;;;2.91;100.00
7614;BME280;3848;42.016;23.098;2023-02-01T02:03:55;97297.50;;;2.90;100.00
7614;BME280;3848;42.016;23.098;2023-02-01T02:06:32;97288.19;;;2.85;100.00
7614;BME280;3848;42.016;23.098;2023-02-01T02:09:00;97304.13;;;2.87;100.00
7614;BME280;3848;42.016;23.098;2023-02-01T02:11:27;97294.78;;;2.81;100.00
7614;BME280;3848;42.016;23.098;2023-02-01T02:13:56;97299.72;;;2.78;100.00
7614;BME280;3848;42.016;23.098;2023-02-01T02:16:38;97300.56;;;2.79;100.00
7614;BME280;3848;42.016;23.098;2023-02-01T02:19:22;97289.44;;;2.69;100.00
7614;BME280;3848;42.016;23.098;2023-02-01T02:22:11;97301.94;;;2.67;100.00
7614;BME280;3848;42.016;23.098;2023-02-01T02:24:56;97300.22;;;2.65;100.00
7614;BME280;3848;42.016;23.098;2023-02-01T02:27:39;97309.38;;;2.63;100.00
7614;BME280;3848;42.016;23.098;2023-02-01T02:36:19;97305.81;;;2.55;100.00
7614;BME280;3848;42.016;23.098;2023-02-01T02:38:55;97293.72;;;2.40;100.00
7614;BME280;3848;42.016;23.098;2023-02-01T02:41:31;97302.69;;;2.30;100.00
7614;BME280;3848;42.016;23.098;2023-02-01T02:44:22;97295.84;;;2.26;100.00
7614;BME280;3848;42.016;23.098;2023-02-01T02:47:13;97301.56;;;2.21;100.00
7614;BME280;3848;42.016;23.098;2023-02-01T02:49:59;97296.44;;;2.16;100.00
7614;BME280;3848;42.016;23.098;2023-02-01T02:52:50;97286.06;;;2.04;100.00
7614;BME280;3848;42.016;23.098;2023-02-01T02:55:37;97295.16;;;2.00;100.00
7614;BME280;3848;42.016;23.098;2023-02-01T02:58:07;97290.06;;;1.97;100.00
7614;BME280;3848;42.016;23.098;2023-02-01T03:00:53;97296.41;;;1.86;100.00
7614;BME280;3848;42.016;23.098;2023-02-01T03:03:39;97296.03;;;1.72;100.00
7614;BME280;3848;42.016;23.098;2023-02-01T03:06:24;97308.47;;;1.69;100.00
7614;BME280;3848;42.016;23.098;2023-02-01T03:08:54;97311.53;;;1.61;100.00
7614;BME280;3848;42.016;23.098;2023-02-01T03:11:23;97309.72;;;1.55;100.00
7614;BME280;3848;42.016;23.098;2023-02-01T03:14:13;97305.38;;;1.49;100.00
7614;BME280;3848;42.016;23.098;2023-02-01T03:16:46;97309.34;;;1.43;100.00
7614;BME280;3848;42.016;23.098;2023-02-01T03:19:18;97320.88;;;1.38;100.00
7614;BME280;3848;42.016;23.098;2023-02-01T03:21:49;97315.88;;;1.38;100.00
7614;BME280;3848;42.016;23.098;2023-02-01T03:24:20;97325.88;;;1.38;100.00
7614;BME280;3848;42.016;23.098;2023-02-01T03:27:01;97324.31;;;1.41;100.00
7614;BME280;3848;42.016;23.098;2023-02-01T03:29:35;97332.59;;;1.39;100.00
7614;BME280;3848;42.016;23.098;2023-02-01T03:32:04;97344.28;;;1.40;100.00
7614;BME280;3848;42.016;23.098;2023-02-01T03:34:31;97349.22;;;1.37;100.00
7614;BME280;3848;42.016;23.098;2023-02-01T03:37:01;97350.91;;;1.38;100.00
7614;BME280;3848;42.016;23.098;2023-02-01T03:39:32;97358.50;;;1.41;100.00
7614;BME280;3848;42.016;23.098;2023-02-01T03:42:03;97360.16;;;1.40;100.00
7614;BME280;3848;42.016;23.098;2023-02-01T03:44:34;97358.56;;;1.42;100.00
7614;BME280;3848;42.016;23.098;2023-02-01T03:47:05;97359.63;;;1.49;100.00
7614;BME280;3848;42.016;23.098;2023-02-01T03:49:37;97360.56;;;1.52;100.00
7614;BME280;3848;42.016;23.098;2023-02-01T03:52:07;97357.41;;;1.60;100.00
7614;BME280;3848;42.016;23.098;2023-02-01T03:54:36;97359.84;;;1.57;100.00
7614;BME280;3848;42.016;23.098;2023-02-01T03:57:08;97358.28;;;1.60;100.00
7614;BME280;3848;42.016;23.098;2023-02-01T03:59:39;97358.34;;;1.63;100.00
7614;BME280;3848;42.016;23.098;2023-02-01T04:02:06;97361.03;;;1.68;100.00
7614;BME280;3848;42.016;23.098;2023-02-01T04:04:34;97356.88;;;1.68;100.00
7614;BME280;3848;42.016;23.098;2023-02-01T04:07:00;97356.88;;;1.68;100.00
7614;BME280;3848;42.016;23.098;2023-02-01T04:09:29;97357.91;;;1.75;100.00
7614;BME280;3848;42.016;23.098;2023-02-01T04:11:55;97350.41;;;1.76;100.00
7614;BME280;3848;42.016;23.098;2023-02-01T04:14:22;97341.41;;;1.83;100.00
7614;BME280;3848;42.016;23.098;2023-02-01T04:16:49;97330.63;;;1.86;100.00
7614;BME280;3848;42.016;23.098;2023-02-01T04:19:16;97326.44;;;1.84;100.00
7614;BME280;3848;42.016;23.098;2023-02-01T04:21:42;97329.06;;;1.88;100.00
7614;BME280;3848;42.016;23.098;2023-02-01T04:24:09;97315.31;;;1.75;100.00
7614;BME280;3848;42.016;23.098;2023-02-01T04:26:37;97331.34;;;1.81;100.00
7614;BME280;3848;42.016;23.098;2023-02-01T04:29:04;97265.09;;;1.42;100.00
7614;BME280;3848;42.016;23.098;2023-02-01T04:31:31;97336.31;;;1.80;100.00
7614;BME280;3848;42.016;23.098;2023-02-01T04:33:58;97338.19;;;1.87;100.00
7614;BME280;3848;42.016;23.098;2023-02-01T04:36:24;97323.28;;;1.90;100.00
7614;BME280;3848;42.016;23.098;2023-02-01T04:38:52;97324.03;;;1.88;100.00
7614;BME280;3848;42.016;23.098;2023-02-01T04:41:19;97333.78;;;1.78;100.00
7614;BME280;3848;42.016;23.098;2023-02-01T04:43:50;97330.38;;;1.76;100.00
7614;BME280;3848;42.016;23.098;2023-02-01T04:46:18;97336.31;;;1.80;100.00
7614;BME280;3848;42.016;23.098;2023-02-01T04:48:44;97339.72;;;1.82;100.00
7614;BME280;3848;42.016;23.098;2023-02-01T04:51:12;97330.56;;;1.82;100.00
7614;BME280;3848;42.016;23.098;2023-02-01T04:53:40;97343.13;;;1.84;100.00
7614;BME280;3848;42.016;23.098;2023-02-01T04:56:07;97345.78;;;1.89;100.00
7614;BME280;3848;42.016;23.098;2023-02-01T04:58:34;97327.44;;;1.90;100.00
7614;BME280;3848;42.016;23.098;2023-02-01T05:01:04;97330.03;;;1.93;100.00
7614;BME280;3848;42.016;23.098;2023-02-01T05:03:31;97335.94;;;1.95;100.00
7614;BME280;3848;42.016;23.098;2023-02-01T05:05:57;97330.19;;;1.99;100.00
7614;BME280;3848;42.016;23.098;2023-02-01T05:08:24;97331.09;;;2.01;100.00
7614;BME280;3848;42.016;23.098;2023-02-01T05:10:52;97320.25;;;2.02;100.00
7614;BME280;3848;42.016;23.098;2023-02-01T05:13:19;97332.28;;;2.13;100.00
7614;BME280;3848;42.016;23.098;2023-02-01T05:16:06;97327.25;;;2.12;100.00
7614;BME280;3848;42.016;23.098;2023-02-01T05:18:33;97331.97;;;2.03;100.00
7614;BME280;3848;42.016;23.098;2023-02-01T05:20:59;97329.31;;;1.97;100.00
7614;BME280;3848;42.016;23.098;2023-02-01T05:23:27;97325.75;;;1.89;100.00
7614;BME280;3848;42.016;23.098;2023-02-01T05:25:58;97327.78;;;1.73;100.00
7614;BME280;3848;42.016;23.098;2023-02-01T05:28:25;97322.41;;;1.61;100.00
7614;BME280;3848;42.016;23.098;2023-02-01T05:30:52;97340.69;;;1.59;100.00
7614;BME280;3848;42.016;23.098;2023-02-01T05:33:20;97343.22;;;1.59;100.00
7614;BME280;3848;42.016;23.098;2023-02-01T05:35:47;97354.91;;;1.60;100.00
7614;BME280;3848;42.016;23.098;2023-02-01T05:38:15;97359.00;;;1.56;100.00
7614;BME280;3848;42.016;23.098;2023-02-01T05:40:42;97363.78;;;1.48;100.00
7614;BME280;3848;42.016;23.098;2023-02-01T05:43:14;97363.16;;;1.56;100.00
7614;BME280;3848;42.016;23.098;2023-02-01T05:45:41;97362.25;;;1.53;100.00
7614;BME280;3848;42.016;23.098;2023-02-01T05:48:08;97378.31;;;1.60;100.00
7614;BME280;3848;42.016;23.098;2023-02-01T05:50:37;97366.53;;;1.58;100.00
7614;BME280;3848;42.016;23.098;2023-02-01T05:53:03;97375.28;;;1.70;100.00
7614;BME280;3848;42.016;23.098;2023-02-01T05:55:30;97378.94;;;1.81;100.00
7614;BME280;3848;42.016;23.098;2023-02-01T05:57:57;97365.44;;;1.76;100.00
7614;BME280;3848;42.016;23.098;2023-02-01T06:00:24;97386.84;;;1.94;100.00
7614;BME280;3848;42.016;23.098;2023-02-01T06:02:52;97381.91;;;1.97;100.00
7614;BME280;3848;42.016;23.098;2023-02-01T06:05:19;97399.72;;;2.06;100.00
7614;BME280;3848;42.016;23.098;2023-02-01T06:07:47;97392.31;;;2.09;100.00
7614;BME280;3848;42.016;23.098;2023-02-01T06:10:15;97374.53;;;2.01;100.00
7614;BME280;3848;42.016;23.098;2023-02-01T06:12:42;97389.88;;;2.12;100.00
7614;BME280;3848;42.016;23.098;2023-02-01T06:15:10;97330.56;;;1.82;100.00
7614;BME280;3848;42.016;23.098;2023-02-01T06:17:37;97407.25;;;2.34;100.00
7614;BME280;3848;42.016;23.098;2023-02-01T06:20:07;97403.97;;;2.37;100.00
7614;BME280;3848;42.016;23.098;2023-02-01T06:22:34;97419.25;;;2.46;100.00
7614;BME280;3848;42.016;23.098;2023-02-01T06:25:03;97411.78;;;2.48;100.00
7614;BME280;3848;42.016;23.098;2023-02-01T06:27:30;97412.66;;;2.50;100.00
7614;BME280;3848;42.016;23.098;2023-02-01T06:29:57;97426.28;;;2.58;100.00
7614;BME280;3848;42.016;23.098;2023-02-01T06:32:24;97415.53;;;2.62;100.00
7614;BME280;3848;42.016;23.098;2023-02-01T06:34:51;97410.63;;;2.66;100.00
7614;BME280;3848;42.016;23.098;2023-02-01T06:37:18;97418.13;;;2.65;100.00
7614;BME280;3848;42.016;23.098;2023-02-01T06:39:45;97416.44;;;2.65;100.00
7614;BME280;3848;42.016;23.098;2023-02-01T06:42:13;97412.47;;;2.72;100.00
7614;BME280;3848;42.016;23.098;2023-02-01T06:44:40;97414.28;;;2.78;100.00
7614;BME280;3848;42.016;23.098;2023-02-01T06:47:07;97412.84;;;2.87;100.00
7614;BME280;3848;42.016;23.098;2023-02-01T06:49:33;97413.00;;;2.92;100.00
7614;BME280;3848;42.016;23.098;2023-02-01T06:52:00;97404.81;;;2.99;100.00
7614;BME280;3848;42.016;23.098;2023-02-01T06:54:27;97408.25;;;3.02;100.00
7614;BME280;3848;42.016;23.098;2023-02-01T06:56:54;97420.28;;;3.14;100.00
7614;BME280;3848;42.016;23.098;2023-02-01T06:59:23;97415.31;;;3.17;100.00
7614;BME280;3848;42.016;23.098;2023-02-01T07:01:50;97413.75;;;3.21;100.00
7614;BME280;3848;42.016;23.098;2023-02-01T07:04:17;97414.56;;;3.20;100.00
7614;BME280;3848;42.016;23.098;2023-02-01T07:06:44;97412.94;;;3.22;100.00
7614;BME280;3848;42.016;23.098;2023-02-01T07:09:10;97404.72;;;3.29;100.00
7614;BME280;3848;42.016;23.098;2023-02-01T07:11:40;97420.38;;;3.53;100.00
7614;BME280;3848;42.016;23.098;2023-02-01T07:14:09;97423.22;;;3.67;100.00
7614;BME280;3848;42.016;23.098;2023-02-01T07:16:37;97421.06;;;3.81;100.00
7614;BME280;3848;42.016;23.098;2023-02-01T07:19:05;97426.50;;;3.99;100.00
7614;BME280;3848;42.016;23.098;2023-02-01T07:21:32;97431.00;;;4.14;100.00
7614;BME280;3848;42.016;23.098;2023-02-01T07:23:59;97433.81;;;4.27;100.00
7614;BME280;3848;42.016;23.098;2023-02-01T07:26:26;97438.38;;;4.45;100.00
7614;BME280;3848;42.016;23.098;2023-02-01T07:28:53;97451.19;;;4.57;100.00
7614;BME280;3848;42.016;23.098;2023-02-01T07:31:20;97454.72;;;4.64;100.00
7614;BME280;3848;42.016;23.098;2023-02-01T07:33:49;97453.16;;;4.71;100.00
7614;BME280;3848;42.016;23.098;2023-02-01T07:36:18;97456.66;;;4.79;100.00
7614;BME280;3848;42.016;23.098;2023-02-01T07:38:45;97458.50;;;4.86;100.00
7614;BME280;3848;42.016;23.098;2023-02-01T07:41:13;97470.44;;;4.96;100.00
7614;BME280;3848;42.016;23.098;2023-02-01T07:43:40;97480.66;;;5.02;100.00
7614;BME280;3848;42.016;23.098;2023-02-01T07:46:08;97481.59;;;5.09;100.00
7614;BME280;3848;42.016;23.098;2023-02-01T07:48:36;97479.06;;;5.07;100.00
7614;BME280;3848;42.016;23.098;2023-02-01T07:51:06;97479.88;;;5.06;100.00
7614;BME280;3848;42.016;23.098;2023-02-01T07:53:34;97479.88;;;5.06;100.00
7614;BME280;3848;42.016;23.098;2023-02-01T07:56:02;97478.19;;;5.05;100.00
7614;BME280;3848;42.016;23.098;2023-02-01T07:58:29;97459.53;;;4.97;100.00
7614;BME280;3848;42.016;23.098;2023-02-01T08:00:56;97474.88;;;5.08;100.00
7614;BME280;3848;42.016;23.098;2023-02-01T08:03:40;97482.41;;;5.08;100.00
7614;BME280;3848;42.016;23.098;2023-02-01T08:06:09;97478.16;;;5.04;100.00
7614;BME280;3848;42.016;23.098;2023-02-01T08:08:36;97492.47;;;5.06;100.00
7614;BME280;3848;42.016;23.098;2023-02-01T08:11:04;97488.38;;;5.11;100.00
7614;BME280;3848;42.016;23.098;2023-02-01T08:13:33;97489.19;;;5.10;98.27
7614;BME280;3848;42.016;23.098;2023-02-01T08:16:01;97490.00;;;5.09;97.69
7614;BME280;3848;42.016;23.098;2023-02-01T08:18:28;97496.75;;;5.12;95.69
7614;BME280;3848;42.016;23.098;2023-02-01T08:20:55;97502.56;;;5.08;95.54
7614;BME280;3848;42.016;23.098;2023-02-01T08:23:25;97505.97;;;5.10;96.90
7614;BME280;3848;42.016;23.098;2023-02-01T08:25:52;97511.13;;;5.16;99.38
7614;BME280;3848;42.016;23.098;2023-02-01T08:28:18;97516.19;;;5.19;95.34
7614;BME280;3848;42.016;23.098;2023-02-01T08:30:45;97511.13;;;5.17;96.50
7614;BME280;3848;42.016;23.098;2023-02-01T08:33:12;97509.47;;;5.18;95.50
7614;BME280;3848;42.016;23.098;2023-02-01T08:35:39;97508.78;;;5.25;97.35
7614;BME280;3848;42.016;23.098;2023-02-01T08:38:06;97501.19;;;5.24;96.96
7614;BME280;3848;42.016;23.098;2023-02-01T08:40:34;97508.03;;;5.31;97.62
7614;BME280;3848;42.016;23.098;2023-02-01T08:43:01;97508.94;;;5.34;97.23
7614;BME280;3848;42.016;23.098;2023-02-01T08:45:28;97494.78;;;5.41;95.03
7614;BME280;3848;42.016;23.098;2023-02-01T08:47:56;97497.41;;;5.45;95.36
7614;BME280;3848;42.016;23.098;2023-02-01T08:50:23;97490.69;;;5.46;94.53
7614;BME280;3848;42.016;23.098;2023-02-01T08:52:50;97494.84;;;5.42;92.55
7614;BME280;3848;42.016;23.098;2023-02-01T08:55:18;97506.69;;;5.48;97.19
7614;BME280;3848;42.016;23.098;2023-02-01T08:57:46;97504.22;;;5.51;97.25
7614;BME280;3848;42.016;23.098;2023-02-01T09:00:15;97505.19;;;5.59;95.15
7614;BME280;3848;42.016;23.098;2023-02-01T09:02:42;97511.25;;;5.69;95.27
7614;BME280;3848;42.016;23.098;2023-02-01T09:05:09;97506.28;;;5.73;91.50
7614;BME280;3848;42.016;23.098;2023-02-01T09:07:37;97500.41;;;5.74;91.29
7614;BME280;3848;42.016;23.098;2023-02-01T09:10:05;97507.28;;;5.83;91.08
7614;BME280;3848;42.016;23.098;2023-02-01T09:12:33;97513.19;;;5.84;85.79
7614;BME280;3848;42.016;23.098;2023-02-01T09:15:02;97519.94;;;5.85;88.34
7614;BME280;3848;42.016;23.098;2023-02-01T09:17:29;97508.88;;;5.78;87.83
7614;BME280;3848;42.016;23.098;2023-02-01T09:19:56;97507.38;;;5.89;87.40
7614;BME280;3848;42.016;23.098;2023-02-01T09:22:23;97516.78;;;5.98;87.42
7614;BME280;3848;42.016;23.098;2023-02-01T09:24:49;97499.97;;;5.97;87.02
7614;BME280;3848;42.016;23.098;2023-02-01T09:27:16;97512.81;;;6.12;87.54
7614;BME280;3848;42.016;23.098;2023-02-01T09:29:43;97515.41;;;6.17;86.05
7614;BME280;3848;42.016;23.098;2023-02-01T09:32:11;97504.56;;;6.24;83.96
7614;BME280;3848;42.016;23.098;2023-02-01T09:34:38;97498.72;;;6.25;85.70
7614;BME280;3848;42.016;23.098;2023-02-01T09:37:05;97496.34;;;6.35;85.21
7614;BME280;3848;42.016;23.098;2023-02-01T09:39:37;97482.91;;;6.36;81.21
7614;BME280;3848;42.016;23.098;2023-02-01T09:42:15;97491.34;;;6.40;83.93
7614;BME280;3848;42.016;23.098;2023-02-01T09:44:57;97485.47;;;6.39;80.54
7614;BME280;3848;42.016;23.098;2023-02-01T09:47:48;97485.53;;;6.44;81.51
7614;BME280;3848;42.016;23.098;2023-02-01T09:50:17;97491.53;;;6.52;83.72
7614;BME280;3848;42.016;23.098;2023-02-01T09:52:52;97483.16;;;6.53;84.33
7614;BME280;3848;42.016;23.098;2023-02-01T09:55:25;97485.78;;;6.62;80.56
7614;BME280;3848;42.016;23.098;2023-02-01T09:57:59;97484.22;;;6.70;74.16
7614;BME280;3848;42.016;23.098;2023-02-01T10:00:30;97486.84;;;6.80;75.15
7614;BME280;3848;42.016;23.098;2023-02-01T10:03:01;97475.13;;;6.86;76.15
7614;BME280;3848;42.016;23.098;2023-02-01T10:05:47;97460.81;;;6.85;76.93
7614;BME280;3848;42.016;23.098;2023-02-01T10:08:25;97439.09;;;6.99;73.01
7614;BME280;3848;42.016;23.098;2023-02-01T10:11:04;97437.63;;;7.20;75.79
7614;BME280;3848;42.016;23.098;2023-02-01T10:13:45;97440.38;;;7.43;72.41
7614;BME280;3848;42.016;23.098;2023-02-01T10:16:25;97435.59;;;7.76;69.51
7614;BME280;3848;42.016;23.098;2023-02-01T10:19:12;97432.72;;;8.47;67.82
7614;BME280;3848;42.016;23.098;2023-02-01T10:21:52;97432.22;;;9.58;59.97
7614;BME280;3848;42.016;23.098;2023-02-01T10:27:13;97437.66;;;11.36;52.79
7614;BME280;3848;42.016;23.098;2023-02-01T10:29:42;97435.06;;;11.40;51.46
7614;BME280;3848;42.016;23.098;2023-02-01T10:32:14;97429.44;;;10.89;53.26
7614;BME280;3848;42.016;23.098;2023-02-01T10:34:44;97427.84;;;10.64;53.03
7614;BME280;3848;42.016;23.098;2023-02-01T10:37:27;97414.34;;;10.39;54.03
7614;BME280;3848;42.016;23.098;2023-02-01T10:39:55;97430.44;;;10.20;54.50
7614;BME280;3848;42.016;23.098;2023-02-01T10:42:25;97434.72;;;9.95;53.71
7614;BME280;3848;42.016;23.098;2023-02-01T10:44:55;97426.28;;;9.81;55.46
7614;BME280;3848;42.016;23.098;2023-02-01T10:47:23;97424.59;;;9.83;54.67
7614;BME280;3848;42.016;23.098;2023-02-01T10:49:57;97419.44;;;10.37;54.63
7614;BME280;3848;42.016;23.098;2023-02-01T10:52:33;97430.38;;;10.59;53.77
7614;BME280;3848;42.016;23.098;2023-02-01T10:58:16;97423.72;;;9.74;54.00
7614;BME280;3848;42.016;23.098;2023-02-01T11:00:48;97429.66;;;9.58;56.28
7614;BME280;3848;42.016;23.098;2023-02-01T11:03:41;97429.59;;;9.23;55.97
7614;BME280;3848;42.016;23.098;2023-02-01T11:06:24;97427.88;;;9.05;57.98
7614;BME280;3848;42.016;23.098;2023-02-01T11:08:54;97416.88;;;9.03;58.80
7614;BME280;3848;42.016;23.098;2023-02-01T11:11:22;97412.63;;;8.89;57.25
7614;BME280;3848;42.016;23.098;2023-02-01T11:13:58;97400.78;;;8.88;60.21
7614;BME280;3848;42.016;23.098;2023-02-01T11:16:37;97406.69;;;8.86;60.20
7614;BME280;3848;42.016;23.098;2023-02-01T11:19:05;97372.88;;;8.72;60.62
7614;BME280;3848;42.016;23.098;2023-02-01T11:21:34;97372.06;;;8.84;58.04
7614;BME280;3848;42.016;23.098;2023-02-01T11:24:02;97367.84;;;8.88;58.16
7614;BME280;3848;42.016;23.098;2023-02-01T11:26:31;97356.94;;;9.42;56.77
7614;BME280;3848;42.016;23.098;2023-02-01T11:29:01;97357.69;;;10.14;56.14
7614;BME280;3848;42.016;23.098;2023-02-01T11:31:29;97359.13;;;10.82;54.18
7614;BME280;3848;42.016;23.098;2023-02-01T11:33:59;97327.44;;;11.32;52.11
7614;BME280;3848;42.016;23.098;2023-02-01T11:36:29;97359.75;;;12.19;51.80
7614;BME280;3848;42.016;23.098;2023-02-01T11:39:17;97353.13;;;12.76;47.30
7614;BME280;3848;42.016;23.098;2023-02-01T11:41:55;97351.06;;;13.03;47.25
7614;BME280;3848;42.016;23.098;2023-02-01T11:44:31;97348.13;;;12.70;46.36
7614;BME280;3848;42.016;23.098;2023-02-01T11:47:18;97307.19;;;12.12;47.33
7614;BME280;3848;42.016;23.098;2023-02-01T11:49:46;97355.53;;;12.16;47.73
7614;BME280;3848;42.016;23.098;2023-02-01T11:52:20;97360.88;;;11.94;48.27
7614;BME280;3848;42.016;23.098;2023-02-01T11:55:10;97359.56;;;11.45;48.84
7614;BME280;3848;42.016;23.098;2023-02-01T11:57:50;97367.47;;;11.07;48.85
7614;BME280;3848;42.016;23.098;2023-02-01T12:00:34;97375.34;;;10.63;50.85
7614;BME280;3848;42.016;23.098;2023-02-01T12:03:40;97367.78;;;10.46;52.34
7614;BME280;3848;42.016;23.098;2023-02-01T12:06:16;97359.44;;;10.00;51.03
7614;BME280;3848;42.016;23.098;2023-02-01T12:09:02;97356.91;;;9.83;52.30
7614;BME280;3848;42.016;23.098;2023-02-01T12:11:46;97356.91;;;9.75;53.82
7614;BME280;3848;42.016;23.098;2023-02-01T12:14:43;97346.75;;;9.72;54.69
7614;BME280;3848;42.016;23.098;2023-02-01T12:20:23;97345.06;;;9.76;53.53
7614;BME280;3848;42.016;23.098;2023-02-01T12:23:01;97349.31;;;9.72;55.25
7614;BME280;3848;42.016;23.098;2023-02-01T12:25:45;97332.38;;;9.76;54.34
7614;BME280;3848;42.016;23.098;2023-02-01T12:28:36;97323.06;;;9.76;54.92
7614;BME280;3848;42.016;23.098;2023-02-01T12:31:25;97303.66;;;9.63;55.55
7614;BME280;3848;42.016;23.098;2023-02-01T12:34:10;97315.47;;;9.57;54.35
7614;BME280;3848;42.016;23.098;2023-02-01T12:36:47;97322.28;;;9.47;53.66
7614;BME280;3848;42.016;23.098;2023-02-01T12:39:22;97304.53;;;9.32;55.18
7614;BME280;3848;42.016;23.098;2023-02-01T12:41:56;97313.81;;;9.28;53.92
7614;BME280;3848;42.016;23.098;2023-02-01T12:44:35;97310.47;;;9.17;54.32
7614;BME280;3848;42.016;23.098;2023-02-01T12:47:08;97309.59;;;9.09;55.29
7614;BME280;3848;42.016;23.098;2023-02-01T12:49:48;97302.00;;;9.01;54.90
7614;BME280;3848;42.016;23.098;2023-02-01T12:52:21;97301.13;;;8.93;54.14
7614;BME280;3848;42.016;23.098;2023-02-01T12:54:54;97286.75;;;8.88;55.58
7614;BME280;3848;42.016;23.098;2023-02-01T12:57:27;97293.50;;;8.89;54.49
7614;BME280;3848;42.016;23.098;2023-02-01T13:00:04;97294.38;;;8.84;55.07
7614;BME280;3848;42.016;23.098;2023-02-01T13:02:38;97285.91;;;8.75;55.27
7614;BME280;3848;42.016;23.098;2023-02-01T13:05:14;97283.38;;;8.75;56.33
7614;BME280;3848;42.016;23.098;2023-02-01T13:07:47;97292.63;;;8.70;57.57
7614;BME280;3848;42.016;23.098;2023-02-01T13:10:18;97195.44;;;8.17;57.31
7614;BME280;3848;42.016;23.098;2023-02-01T13:12:53;97285.06;;;8.80;56.69
7614;BME280;3848;42.016;23.098;2023-02-01T13:15:24;97284.22;;;8.81;55.73
7614;BME280;3848;42.016;23.098;2023-02-01T13:17:57;97280.00;;;8.80;55.01
7614;BME280;3848;42.016;23.098;2023-02-01T13:20:29;97274.09;;;8.77;55.05
7614;BME280;3848;42.016;23.098;2023-02-01T13:23:02;97270.69;;;8.73;55.43
7614;BME280;3848;42.016;23.098;2023-02-01T13:25:35;97278.28;;;8.73;55.16
7614;BME280;3848;42.016;23.098;2023-02-01T13:28:18;97271.53;;;8.66;54.77
7614;BME280;3848;42.016;23.098;2023-02-01T13:31:00;97258.81;;;8.48;54.62
7614;BME280;3848;42.016;23.098;2023-02-01T13:33:42;97272.38;;;8.58;55.97
7614;BME280;3848;42.016;23.098;2023-02-01T13:36:30;97279.13;;;8.59;56.84
7614;BME280;3848;42.016;23.098;2023-02-01T13:42:14;97275.75;;;8.70;56.10
7614;BME280;3848;42.016;23.098;2023-02-01T13:44:45;97282.53;;;8.79;57.34
7614;BME280;3848;42.016;23.098;2023-02-01T13:47:23;97281.69;;;8.83;56.22
7614;BME280;3848;42.016;23.098;2023-02-01T13:49:52;97283.38;;;8.85;56.56
7614;BME280;3848;42.016;23.098;2023-02-01T13:52:25;97252.13;;;8.76;54.40
7614;BME280;3848;42.016;23.098;2023-02-01T13:55:22;97277.47;;;8.88;55.91